sensor_id;sensor_type;location;lat;lon;timestamp;P1;durP1;ratioP1;P2;durP2;ratioP2
19231;SDS011;9750;48.730;10.294;2023-10-31T00:01:25;1.20;;;1.10;;
19231;SDS011;9750;48.730;10.294;2023-10-31T00:03:52;1.40;;;1.30;;
19231;SDS011;9750;48.730;10.294;2023-10-31T00:06:19;1.00;;;1.00;;
19231;SDS011;9750;48.730;10.294;2023-10-31T00:08:48;1.17;;;1.07;;
19231;SDS011;9750;48.730;10.294;2023-10-31T00:11:15;1.70;;;1.07;;
19231;SDS011;9750;48.730;10.294;2023-10-31T00:13:42;1.13;;;1.03;;
19231;SDS011;9750;48.730;10.294;2023-10-31T00:16:10;1.50;;;1.40;;
19231;SDS011;9750;48.730;10.294;2023-10-31T00:18:37;1.20;;;1.10;;
19231;SDS011;9750;48.730;10.294;2023-10-31T00:21:05;1.70;;;1.13;;
19231;SDS011;9750;48.730;10.294;2023-10-31T00:23:32;1.47;;;1.07;;
19231;SDS011;9750;48.730;10.294;2023-10-31T00:26:01;1.17;;;1.07;;
19231;SDS011;9750;48.730;10.294;2023-10-31T00:28:28;0.97;;;0.97;;
19231;SDS011;9750;48.730;10.294;2023-10-31T00:30:55;1.20;;;1.10;;
19231;SDS011;9750;48.730;10.294;2023-10-31T00:33:22;1.40;;;1.30;;
19231;SDS011;9750;48.730;10.294;2023-10-31T00:35:50;1.20;;;1.07;;
19231;SDS011;9750;48.730;10.294;2023-10-31T00:38:17;1.90;;;1.20;;
19231;SDS011;9750;48.730;10.294;2023-10-31T00:40:44;1.40;;;1.30;;
19231;SDS011;9750;48.730;10.294;2023-10-31T00:43:13;1.50;;;1.17;;
19231;SDS011;9750;48.730;10.294;2023-10-31T00:45:40;1.20;;;1.10;;
19231;SDS011;9750;48.730;10.294;2023-10-31T00:48:07;1.30;;;1.20;;
19231;SDS011;9750;48.730;10.294;2023-10-31T00:50:35;1.80;;;1.33;;
19231;SDS011;9750;48.730;10.294;2023-10-31T00:53:02;2.10;;;1.20;;
19231;SDS011;9750;48.730;10.294;2023-10-31T00:55:29;0.97;;;0.97;;
19231;SDS011;9750;48.730;10.294;2023-10-31T00:57:56;1.20;;;1.10;;
19231;SDS011;9750;48.730;10.294;2023-10-31T01:00:25;1.30;;;1.20;;
19231;SDS011;9750;48.730;10.294;2023-10-31T01:02:52;2.03;;;1.23;;
19231;SDS011;9750;48.730;10.294;2023-10-31T01:05:20;1.30;;;1.20;;
19231;SDS011;9750;48.730;10.294;2023-10-31T01:07:47;1.37;;;1.10;;
19231;SDS011;9750;48.730;10.294;2023-10-31T01:10:14;1.17;;;1.07;;
19231;SDS011;9750;48.730;10.294;2023-10-31T01:12:42;1.37;;;1.20;;
19231;SDS011;9750;48.730;10.294;2023-10-31T01:15:09;2.07;;;1.20;;
19231;SDS011;9750;48.730;10.294;2023-10-31T01:17:38;1.20;;;1.10;;
19231;SDS011;9750;48.730;10.294;2023-10-31T01:20:06;1.37;;;1.20;;
19231;SDS011;9750;48.730;10.294;2023-10-31T01:22:35;1.23;;;1.13;;
19231;SDS011;9750;48.730;10.294;2023-10-31T01:25:02;2.40;;;1.50;;
19231;SDS011;9750;48.730;10.294;2023-10-31T01:27:30;1.30;;;1.20;;
19231;SDS011;9750;48.730;10.294;2023-10-31T01:29:57;1.43;;;1.20;;
19231;SDS011;9750;48.730;10.294;2023-10-31T01:32:25;1.33;;;1.23;;
19231;SDS011;9750;48.730;10.294;2023-10-31T01:34:53;1.30;;;1.20;;
19231;SDS011;9750;48.730;10.294;2023-10-31T01:37:21;1.30;;;1.20;;
19231;SDS011;9750;48.730;10.294;2023-10-31T01:39:48;1.30;;;1.20;;
19231;SDS011;9750;48.730;10.294;2023-10-31T01:42:15;1.30;;;1.20;;
19231;SDS011;9750;48.730;10.294;2023-10-31T01:44:43;1.50;;;1.40;;
19231;SDS011;9750;48.730;10.294;2023-10-31T01:47:10;1.40;;;1.10;;
19231;SDS011;9750;48.730;10.294;2023-10-31T01:49:38;1.40;;;1.30;;
19231;SDS011;9750;48.730;10.294;2023-10-31T01:52:20;1.60;;;1.50;;
19231;SDS011;9750;48.730;10.294;2023-10-31T01:54:47;1.30;;;1.20;;
19231;SDS011;9750;48.730;10.294;2023-10-31T01:57:15;1.13;;;1.00;;
19231;SDS011;9750;48.730;10.294;2023-10-31T01:59:45;1.10;;;0.93;;
19231;SDS011;9750;48.730;10.294;2023-10-31T02:02:12;1.20;;;1.10;;
19231;SDS011;9750;48.730;10.294;2023-10-31T02:04:40;1.17;;;1.10;;
19231;SDS011;9750;48.730;10.294;2023-10-31T02:07:07;1.70;;;1.07;;
19231;SDS011;9750;48.730;10.294;2023-10-31T02:09:36;1.00;;;1.00;;
19231;SDS011;9750;48.730;10.294;2023-10-31T02:12:03;1.17;;;1.00;;
19231;SDS011;9750;48.730;10.294;2023-10-31T02:14:30;0.80;;;0.80;;
19231;SDS011;9750;48.730;10.294;2023-10-31T02:16:58;1.10;;;1.00;;
19231;SDS011;9750;48.730;10.294;2023-10-31T02:19:25;0.90;;;0.90;;
19231;SDS011;9750;48.730;10.294;2023-10-31T02:21:54;1.10;;;1.10;;
19231;SDS011;9750;48.730;10.294;2023-10-31T02:24:21;2.00;;;1.10;;
19231;SDS011;9750;48.730;10.294;2023-10-31T02:26:49;0.97;;;0.97;;
19231;SDS011;9750;48.730;10.294;2023-10-31T02:29:16;2.00;;;1.20;;
19231;SDS011;9750;48.730;10.294;2023-10-31T02:31:43;1.97;;;1.30;;
19231;SDS011;9750;48.730;10.294;2023-10-31T02:34:10;1.20;;;1.00;;
19231;SDS011;9750;48.730;10.294;2023-10-31T02:36:38;1.20;;;1.00;;
19231;SDS011;9750;48.730;10.294;2023-10-31T02:39:06;2.77;;;0.90;;
19231;SDS011;9750;48.730;10.294;2023-10-31T02:41:34;2.10;;;1.03;;
19231;SDS011;9750;48.730;10.294;2023-10-31T02:44:01;1.37;;;1.07;;
19231;SDS011;9750;48.730;10.294;2023-10-31T02:46:28;1.23;;;0.80;;
19231;SDS011;9750;48.730;10.294;2023-10-31T02:48:55;2.97;;;1.00;;
19231;SDS011;9750;48.730;10.294;2023-10-31T02:51:23;1.67;;;0.90;;
19231;SDS011;9750;48.730;10.294;2023-10-31T02:53:50;0.90;;;0.90;;
19231;SDS011;9750;48.730;10.294;2023-10-31T02:56:20;0.90;;;0.90;;
19231;SDS011;9750;48.730;10.294;2023-10-31T02:58:48;0.80;;;0.80;;
19231;SDS011;9750;48.730;10.294;2023-10-31T03:01:15;1.10;;;1.00;;
19231;SDS011;9750;48.730;10.294;2023-10-31T03:03:45;2.10;;;0.93;;
19231;SDS011;9750;48.730;10.294;2023-10-31T03:06:12;0.83;;;0.83;;
19231;SDS011;9750;48.730;10.294;2023-10-31T03:08:39;1.43;;;0.90;;
19231;SDS011;9750;48.730;10.294;2023-10-31T03:11:06;1.37;;;0.97;;
19231;SDS011;9750;48.730;10.294;2023-10-31T03:13:35;1.13;;;1.00;;
19231;SDS011;9750;48.730;10.294;2023-10-31T03:16:03;1.10;;;1.00;;
19231;SDS011;9750;48.730;10.294;2023-10-31T03:18:30;3.17;;;1.00;;
19231;SDS011;9750;48.730;10.294;2023-10-31T03:20:57;4.27;;;1.60;;
19231;SDS011;9750;48.730;10.294;2023-10-31T03:23:24;1.63;;;1.00;;
19231;SDS011;9750;48.730;10.294;2023-10-31T03:25:52;1.20;;;0.80;;
19231;SDS011;9750;48.730;10.294;2023-10-31T03:28:20;2.17;;;1.20;;
19231;SDS011;9750;48.730;10.294;2023-10-31T03:30:50;1.40;;;0.97;;
19231;SDS011;9750;48.730;10.294;2023-10-31T03:33:17;2.03;;;1.10;;
19231;SDS011;9750;48.730;10.294;2023-10-31T03:35:45;1.20;;;1.00;;
19231;SDS011;9750;48.730;10.294;2023-10-31T03:38:12;1.90;;;1.10;;
19231;SDS011;9750;48.730;10.294;2023-10-31T03:40:40;1.30;;;1.00;;
19231;SDS011;9750;48.730;10.294;2023-10-31T03:43:07;1.10;;;1.00;;
19231;SDS011;9750;48.730;10.294;2023-10-31T03:45:35;2.10;;;1.03;;
19231;SDS011;9750;48.730;10.294;2023-10-31T03:48:04;1.20;;;0.93;;
19231;SDS011;9750;48.730;10.294;2023-10-31T03:50:31;1.20;;;1.10;;
19231;SDS011;9750;48.730;10.294;2023-10-31T03:52:58;1.93;;;0.93;;
19231;SDS011;9750;48.730;10.294;2023-10-31T03:55:25;1.30;;;1.00;;
19231;SDS011;9750;48.730;10.294;2023-10-31T03:57:53;2.33;;;1.10;;
19231;SDS011;9750;48.730;10.294;2023-10-31T04:00:20;1.13;;;0.97;;
19231;SDS011;9750;48.730;10.294;2023-10-31T04:02:47;1.20;;;1.10;;
19231;SDS011;9750;48.730;10.294;2023-10-31T04:05:16;1.20;;;1.10;;
19231;SDS011;9750;48.730;10.294;2023-10-31T04:07:43;2.30;;;1.27;;
19231;SDS011;9750;48.730;10.294;2023-10-31T04:10:11;1.10;;;1.00;;
19231;SDS011;9750;48.730;10.294;2023-10-31T04:12:38;2.33;;;1.10;;
19231;SDS011;9750;48.730;10.294;2023-10-31T04:15:06;3.30;;;1.10;;
19231;SDS011;9750;48.730;10.294;2023-10-31T04:17:34;1.20;;;1.00;;
19231;SDS011;9750;48.730;10.294;2023-10-31T04:20:02;1.00;;;1.00;;
19231;SDS011;9750;48.730;10.294;2023-10-31T04:22:31;1.20;;;1.10;;
19231;SDS011;9750;48.730;10.294;2023-10-31T04:24:58;1.30;;;1.20;;
19231;SDS011;9750;48.730;10.294;2023-10-31T04:27:25;1.63;;;1.20;;
19231;SDS011;9750;48.730;10.294;2023-10-31T04:29:53;1.47;;;1.27;;
19231;SDS011;9750;48.730;10.294;2023-10-31T04:32:20;1.83;;;1.17;;
19231;SDS011;9750;48.730;10.294;2023-10-31T04:34:47;1.60;;;1.10;;
19231;SDS011;9750;48.730;10.294;2023-10-31T04:37:14;2.50;;;1.20;;
19231;SDS011;9750;48.730;10.294;2023-10-31T04:39:43;1.27;;;1.10;;
19231;SDS011;9750;48.730;10.294;2023-10-31T04:42:11;1.80;;;1.10;;
19231;SDS011;9750;48.730;10.294;2023-10-31T04:44:38;1.47;;;1.20;;
19231;SDS011;9750;48.730;10.294;2023-10-31T04:47:05;1.33;;;1.23;;
19231;SDS011;9750;48.730;10.294;2023-10-31T04:49:34;1.10;;;1.00;;
19231;SDS011;9750;48.730;10.294;2023-10-31T04:52:02;1.20;;;1.10;;
19231;SDS011;9750;48.730;10.294;2023-10-31T04:54:29;1.33;;;1.10;;
19231;SDS011;9750;48.730;10.294;2023-10-31T04:56:58;1.13;;;1.03;;
19231;SDS011;9750;48.730;10.294;2023-10-31T04:59:26;1.87;;;1.07;;
19231;SDS011;9750;48.730;10.294;2023-10-31T05:01:53;1.00;;;1.00;;
19231;SDS011;9750;48.730;10.294;2023-10-31T05:04:20;1.60;;;1.13;;
19231;SDS011;9750;48.730;10.294;2023-10-31T05:06:48;1.20;;;1.10;;
19231;SDS011;9750;48.730;10.294;2023-10-31T05:09:15;1.10;;;1.00;;
19231;SDS011;9750;48.730;10.294;2023-10-31T05:11:43;1.30;;;1.20;;
19231;SDS011;9750;48.730;10.294;2023-10-31T05:14:11;1.87;;;1.10;;
19231;SDS011;9750;48.730;10.294;2023-10-31T05:16:39;1.40;;;1.10;;
19231;SDS011;9750;48.730;10.294;2023-10-31T05:19:07;1.13;;;1.07;;
19231;SDS011;9750;48.730;10.294;2023-10-31T05:21:34;1.40;;;1.20;;
19231;SDS011;9750;48.730;10.294;2023-10-31T05:24:02;1.77;;;1.03;;
19231;SDS011;9750;48.730;10.294;2023-10-31T05:26:29;1.00;;;1.00;;
19231;SDS011;9750;48.730;10.294;2023-10-31T05:28:57;2.20;;;1.07;;
19231;SDS011;9750;48.730;10.294;2023-10-31T05:31:26;1.60;;;0.87;;
19231;SDS011;9750;48.730;10.294;2023-10-31T05:33:53;1.03;;;0.93;;
19231;SDS011;9750;48.730;10.294;2023-10-31T05:36:21;0.77;;;0.77;;
19231;SDS011;9750;48.730;10.294;2023-10-31T05:38:49;1.73;;;1.00;;
19231;SDS011;9750;48.730;10.294;2023-10-31T05:41:16;1.07;;;1.00;;
19231;SDS011;9750;48.730;10.294;2023-10-31T05:43:43;0.93;;;0.93;;
19231;SDS011;9750;48.730;10.294;2023-10-31T05:46:11;0.90;;;0.90;;
19231;SDS011;9750;48.730;10.294;2023-10-31T05:48:41;1.30;;;1.10;;
19231;SDS011;9750;48.730;10.294;2023-10-31T05:51:13;1.67;;;1.10;;
19231;SDS011;9750;48.730;10.294;2023-10-31T05:53:41;1.40;;;1.17;;
19231;SDS011;9750;48.730;10.294;2023-10-31T05:56:10;1.23;;;1.00;;
19231;SDS011;9750;48.730;10.294;2023-10-31T05:58:39;1.20;;;1.10;;
19231;SDS011;9750;48.730;10.294;2023-10-31T06:01:07;1.10;;;1.00;;
19231;SDS011;9750;48.730;10.294;2023-10-31T06:03:34;1.30;;;1.20;;
19231;SDS011;9750;48.730;10.294;2023-10-31T06:06:03;1.00;;;1.00;;
19231;SDS011;9750;48.730;10.294;2023-10-31T06:08:31;1.17;;;1.07;;
19231;SDS011;9750;48.730;10.294;2023-10-31T06:10:59;1.27;;;1.13;;
19231;SDS011;9750;48.730;10.294;2023-10-31T06:13:27;1.20;;;1.10;;
19231;SDS011;9750;48.730;10.294;2023-10-31T06:15:56;4.27;;;1.07;;
19231;SDS011;9750;48.730;10.294;2023-10-31T06:18:24;1.10;;;1.10;;
19231;SDS011;9750;48.730;10.294;2023-10-31T06:20:51;2.20;;;1.20;;
19231;SDS011;9750;48.730;10.294;2023-10-31T06:23:20;1.53;;;1.20;;
19231;SDS011;9750;48.730;10.294;2023-10-31T06:25:47;2.23;;;1.10;;
19231;SDS011;9750;48.730;10.294;2023-10-31T06:28:15;1.60;;;0.93;;
19231;SDS011;9750;48.730;10.294;2023-10-31T06:30:42;1.80;;;1.10;;
19231;SDS011;9750;48.730;10.294;2023-10-31T06:33:09;1.53;;;1.13;;
19231;SDS011;9750;48.730;10.294;2023-10-31T06:35:37;1.10;;;1.00;;
19231;SDS011;9750;48.730;10.294;2023-10-31T06:38:04;1.23;;;1.13;;
19231;SDS011;9750;48.730;10.294;2023-10-31T06:40:33;3.33;;;1.37;;
19231;SDS011;9750;48.730;10.294;2023-10-31T06:43:00;1.00;;;1.00;;
19231;SDS011;9750;48.730;10.294;2023-10-31T06:45:28;1.60;;;1.10;;
19231;SDS011;9750;48.730;10.294;2023-10-31T06:47:55;1.20;;;1.07;;
19231;SDS011;9750;48.730;10.294;2023-10-31T06:50:24;1.13;;;1.07;;
19231;SDS011;9750;48.730;10.294;2023-10-31T06:52:51;1.77;;;1.30;;
19231;SDS011;9750;48.730;10.294;2023-10-31T06:55:18;2.17;;;1.30;;
19231;SDS011;9750;48.730;10.294;2023-10-31T06:57:47;1.97;;;1.03;;
19231;SDS011;9750;48.730;10.294;2023-10-31T07:00:15;1.50;;;1.20;;
19231;SDS011;9750;48.730;10.294;2023-10-31T07:02:42;1.37;;;1.20;;
19231;SDS011;9750;48.730;10.294;2023-10-31T07:05:10;1.40;;;1.20;;
19231;SDS011;9750;48.730;10.294;2023-10-31T07:07:37;3.40;;;3.10;;
19231;SDS011;9750;48.730;10.294;2023-10-31T07:10:05;1.20;;;1.10;;
19231;SDS011;9750;48.730;10.294;2023-10-31T07:12:32;1.30;;;1.20;;
19231;SDS011;9750;48.730;10.294;2023-10-31T07:15:01;0.83;;;0.83;;
19231;SDS011;9750;48.730;10.294;2023-10-31T07:17:29;1.90;;;1.10;;
19231;SDS011;9750;48.730;10.294;2023-10-31T07:19:57;1.77;;;1.40;;
19231;SDS011;9750;48.730;10.294;2023-10-31T07:22:24;0.80;;;0.80;;
19231;SDS011;9750;48.730;10.294;2023-10-31T07:24:51;1.27;;;1.00;;
19231;SDS011;9750;48.730;10.294;2023-10-31T07:27:19;1.43;;;1.03;;
19231;SDS011;9750;48.730;10.294;2023-10-31T07:29:46;1.10;;;1.03;;
19231;SDS011;9750;48.730;10.294;2023-10-31T07:32:15;2.40;;;0.90;;
19231;SDS011;9750;48.730;10.294;2023-10-31T07:34:42;1.13;;;0.90;;
19231;SDS011;9750;48.730;10.294;2023-10-31T07:37:10;1.10;;;1.00;;
19231;SDS011;9750;48.730;10.294;2023-10-31T07:39:37;1.90;;;1.17;;
19231;SDS011;9750;48.730;10.294;2023-10-31T07:42:04;3.07;;;1.00;;
19231;SDS011;9750;48.730;10.294;2023-10-31T07:44:32;1.57;;;1.20;;
19231;SDS011;9750;48.730;10.294;2023-10-31T07:46:59;1.53;;;1.20;;
19231;SDS011;9750;48.730;10.294;2023-10-31T07:49:28;0.90;;;0.90;;
19231;SDS011;9750;48.730;10.294;2023-10-31T07:51:55;1.20;;;1.10;;
19231;SDS011;9750;48.730;10.294;2023-10-31T07:54:23;2.60;;;1.00;;
19231;SDS011;9750;48.730;10.294;2023-10-31T07:56:50;0.67;;;0.67;;
19231;SDS011;9750;48.730;10.294;2023-10-31T07:59:17;2.57;;;1.20;;
19231;SDS011;9750;48.730;10.294;2023-10-31T08:01:45;1.53;;;0.90;;
19231;SDS011;9750;48.730;10.294;2023-10-31T08:04:13;1.10;;;1.00;;
19231;SDS011;9750;48.730;10.294;2023-10-31T08:06:43;1.67;;;1.20;;
19231;SDS011;9750;48.730;10.294;2023-10-31T08:09:10;1.13;;;1.03;;
19231;SDS011;9750;48.730;10.294;2023-10-31T08:11:38;1.37;;;1.20;;
19231;SDS011;9750;48.730;10.294;2023-10-31T08:14:05;1.87;;;1.23;;
19231;SDS011;9750;48.730;10.294;2023-10-31T08:16:32;1.13;;;1.00;;
19231;SDS011;9750;48.730;10.294;2023-10-31T08:19:00;2.40;;;1.20;;
19231;SDS011;9750;48.730;10.294;2023-10-31T08:21:27;1.50;;;1.10;;
19231;SDS011;9750;48.730;10.294;2023-10-31T08:24:01;2.10;;;1.10;;
19231;SDS011;9750;48.730;10.294;2023-10-31T08:26:29;1.37;;;1.20;;
19231;SDS011;9750;48.730;10.294;2023-10-31T08:28:57;2.10;;;1.30;;
19231;SDS011;9750;48.730;10.294;2023-10-31T08:31:24;3.47;;;1.40;;
19231;SDS011;9750;48.730;10.294;2023-10-31T08:33:51;1.20;;;1.10;;
19231;SDS011;9750;48.730;10.294;2023-10-31T08:36:24;4.30;;;1.80;;
19231;SDS011;9750;48.730;10.294;2023-10-31T08:38:53;2.07;;;1.30;;
19231;SDS011;9750;48.730;10.294;2023-10-31T08:41:22;2.10;;;1.13;;
19231;SDS011;9750;48.730;10.294;2023-10-31T08:43:54;1.47;;;1.00;;
19231;SDS011;9750;48.730;10.294;2023-10-31T08:46:27;1.90;;;1.10;;
19231;SDS011;9750;48.730;10.294;2023-10-31T08:48:54;2.67;;;1.07;;
19231;SDS011;9750;48.730;10.294;2023-10-31T08:51:22;1.67;;;1.10;;
19231;SDS011;9750;48.730;10.294;2023-10-31T08:53:49;2.00;;;1.00;;
19231;SDS011;9750;48.730;10.294;2023-10-31T08:56:16;2.40;;;1.00;;
19231;SDS011;9750;48.730;10.294;2023-10-31T08:58:46;1.57;;;1.10;;
19231;SDS011;9750;48.730;10.294;2023-10-31T09:01:21;0.97;;;0.90;;
19231;SDS011;9750;48.730;10.294;2023-10-31T09:03:49;1.03;;;1.03;;
19231;SDS011;9750;48.730;10.294;2023-10-31T09:06:16;1.70;;;1.60;;
19231;SDS011;9750;48.730;10.294;2023-10-31T09:08:43;1.27;;;1.13;;
19231;SDS011;9750;48.730;10.294;2023-10-31T09:11:10;1.40;;;1.10;;
19231;SDS011;9750;48.730;10.294;2023-10-31T09:13:38;4.13;;;1.37;;
19231;SDS011;9750;48.730;10.294;2023-10-31T09:16:07;2.07;;;1.00;;
19231;SDS011;9750;48.730;10.294;2023-10-31T09:18:35;2.17;;;1.23;;
19231;SDS011;9750;48.730;10.294;2023-10-31T09:21:02;2.63;;;1.27;;
19231;SDS011;9750;48.730;10.294;2023-10-31T09:23:30;2.43;;;1.20;;
19231;SDS011;9750;48.730;10.294;2023-10-31T09:25:58;1.83;;;1.27;;
19231;SDS011;9750;48.730;10.294;2023-10-31T09:28:26;1.77;;;1.20;;
19231;SDS011;9750;48.730;10.294;2023-10-31T09:30:55;2.03;;;1.13;;
19231;SDS011;9750;48.730;10.294;2023-10-31T09:33:26;2.80;;;1.30;;
19231;SDS011;9750;48.730;10.294;2023-10-31T09:35:53;2.37;;;2.00;;
19231;SDS011;9750;48.730;10.294;2023-10-31T09:38:21;1.30;;;1.20;;
19231;SDS011;9750;48.730;10.294;2023-10-31T09:40:48;3.17;;;1.30;;
19231;SDS011;9750;48.730;10.294;2023-10-31T09:43:16;2.50;;;1.30;;
19231;SDS011;9750;48.730;10.294;2023-10-31T09:45:43;4.30;;;1.37;;
19231;SDS011;9750;48.730;10.294;2023-10-31T09:48:11;3.40;;;1.50;;
19231;SDS011;9750;48.730;10.294;2023-10-31T09:50:41;4.23;;;1.60;;
19231;SDS011;9750;48.730;10.294;2023-10-31T09:53:09;3.57;;;1.30;;
19231;SDS011;9750;48.730;10.294;2023-10-31T09:55:37;5.60;;;1.83;;
19231;SDS011;9750;48.730;10.294;2023-10-31T09:58:05;2.73;;;1.27;;
19231;SDS011;9750;48.730;10.294;2023-10-31T10:00:33;3.23;;;1.43;;
19231;SDS011;9750;48.730;10.294;2023-10-31T10:03:02;4.00;;;1.40;;
19231;SDS011;9750;48.730;10.294;2023-10-31T10:05:30;2.83;;;1.30;;
19231;SDS011;9750;48.730;10.294;2023-10-31T10:07:59;2.00;;;1.40;;
19231;SDS011;9750;48.730;10.294;2023-10-31T10:10:27;5.03;;;1.43;;
19231;SDS011;9750;48.730;10.294;2023-10-31T10:12:55;4.17;;;1.40;;
19231;SDS011;9750;48.730;10.294;2023-10-31T10:15:23;5.97;;;2.13;;
19231;SDS011;9750;48.730;10.294;2023-10-31T10:17:50;2.40;;;1.37;;
19231;SDS011;9750;48.730;10.294;2023-10-31T10:20:18;3.90;;;1.60;;
19231;SDS011;9750;48.730;10.294;2023-10-31T10:22:45;4.03;;;1.50;;
19231;SDS011;9750;48.730;10.294;2023-10-31T10:25:15;3.50;;;2.00;;
19231;SDS011;9750;48.730;10.294;2023-10-31T10:27:43;4.73;;;1.43;;
19231;SDS011;9750;48.730;10.294;2023-10-31T10:30:12;3.20;;;1.80;;
19231;SDS011;9750;48.730;10.294;2023-10-31T10:32:40;4.27;;;2.13;;
19231;SDS011;9750;48.730;10.294;2023-10-31T10:35:07;3.20;;;1.50;;
19231;SDS011;9750;48.730;10.294;2023-10-31T10:37:35;2.13;;;1.43;;
19231;SDS011;9750;48.730;10.294;2023-10-31T10:40:05;2.17;;;1.37;;
19231;SDS011;9750;48.730;10.294;2023-10-31T10:42:38;6.50;;;1.90;;
19231;SDS011;9750;48.730;10.294;2023-10-31T10:45:12;2.63;;;1.50;;
19231;SDS011;9750;48.730;10.294;2023-10-31T10:47:41;3.70;;;1.50;;
19231;SDS011;9750;48.730;10.294;2023-10-31T10:50:13;3.50;;;1.60;;
19231;SDS011;9750;48.730;10.294;2023-10-31T10:52:41;4.87;;;2.10;;
19231;SDS011;9750;48.730;10.294;2023-10-31T10:55:17;3.80;;;1.70;;
19231;SDS011;9750;48.730;10.294;2023-10-31T10:57:52;4.70;;;2.10;;
19231;SDS011;9750;48.730;10.294;2023-10-31T11:00:26;3.07;;;1.80;;
19231;SDS011;9750;48.730;10.294;2023-10-31T11:02:55;4.70;;;2.43;;
19231;SDS011;9750;48.730;10.294;2023-10-31T11:05:23;3.57;;;1.73;;
19231;SDS011;9750;48.730;10.294;2023-10-31T11:07:51;2.90;;;1.83;;
19231;SDS011;9750;48.730;10.294;2023-10-31T11:10:20;2.30;;;1.40;;
19231;SDS011;9750;48.730;10.294;2023-10-31T11:12:52;1.87;;;1.33;;
19231;SDS011;9750;48.730;10.294;2023-10-31T11:15:19;2.17;;;1.70;;
19231;SDS011;9750;48.730;10.294;2023-10-31T11:17:47;3.40;;;1.53;;
19231;SDS011;9750;48.730;10.294;2023-10-31T11:20:15;4.10;;;1.80;;
19231;SDS011;9750;48.730;10.294;2023-10-31T11:22:43;4.77;;;1.70;;
19231;SDS011;9750;48.730;10.294;2023-10-31T11:25:14;6.20;;;1.90;;
19231;SDS011;9750;48.730;10.294;2023-10-31T11:27:45;4.60;;;2.10;;
19231;SDS011;9750;48.730;10.294;2023-10-31T11:30:21;4.77;;;2.47;;
19231;SDS011;9750;48.730;10.294;2023-10-31T11:33:00;3.43;;;1.77;;
19231;SDS011;9750;48.730;10.294;2023-10-31T11:35:30;2.67;;;1.60;;
19231;SDS011;9750;48.730;10.294;2023-10-31T11:38:03;4.70;;;1.70;;
19231;SDS011;9750;48.730;10.294;2023-10-31T11:40:32;2.93;;;1.83;;
19231;SDS011;9750;48.730;10.294;2023-10-31T11:43:02;3.37;;;1.50;;
19231;SDS011;9750;48.730;10.294;2023-10-31T11:45:33;3.20;;;1.47;;
19231;SDS011;9750;48.730;10.294;2023-10-31T11:48:02;3.57;;;1.60;;
19231;SDS011;9750;48.730;10.294;2023-10-31T11:50:31;3.17;;;1.30;;
19231;SDS011;9750;48.730;10.294;2023-10-31T11:53:03;2.80;;;1.53;;
19231;SDS011;9750;48.730;10.294;2023-10-31T11:55:32;3.27;;;1.50;;
19231;SDS011;9750;48.730;10.294;2023-10-31T11:58:16;3.73;;;1.43;;
19231;SDS011;9750;48.730;10.294;2023-10-31T12:00:46;4.40;;;1.63;;
19231;SDS011;9750;48.730;10.294;2023-10-31T12:03:16;3.10;;;1.53;;
19231;SDS011;9750;48.730;10.294;2023-10-31T12:05:53;3.23;;;1.50;;
19231;SDS011;9750;48.730;10.294;2023-10-31T12:08:26;2.80;;;1.53;;
19231;SDS011;9750;48.730;10.294;2023-10-31T12:11:02;3.50;;;2.30;;
19231;SDS011;9750;48.730;10.294;2023-10-31T12:13:31;5.37;;;1.87;;
19231;SDS011;9750;48.730;10.294;2023-10-31T12:16:00;1.67;;;1.20;;
19231;SDS011;9750;48.730;10.294;2023-10-31T12:18:28;2.07;;;1.20;;
19231;SDS011;9750;48.730;10.294;2023-10-31T12:20:55;2.93;;;1.23;;
19231;SDS011;9750;48.730;10.294;2023-10-31T12:23:23;2.93;;;1.33;;
19231;SDS011;9750;48.730;10.294;2023-10-31T12:25:50;1.70;;;1.40;;
19231;SDS011;9750;48.730;10.294;2023-10-31T12:28:18;1.60;;;1.17;;
19231;SDS011;9750;48.730;10.294;2023-10-31T12:30:46;2.37;;;1.30;;
19231;SDS011;9750;48.730;10.294;2023-10-31T12:33:15;2.10;;;1.10;;
19231;SDS011;9750;48.730;10.294;2023-10-31T12:35:43;2.53;;;1.20;;
19231;SDS011;9750;48.730;10.294;2023-10-31T12:38:11;3.77;;;1.50;;
19231;SDS011;9750;48.730;10.294;2023-10-31T12:40:39;2.63;;;1.50;;
19231;SDS011;9750;48.730;10.294;2023-10-31T12:43:09;2.90;;;1.20;;
19231;SDS011;9750;48.730;10.294;2023-10-31T12:45:36;1.67;;;1.37;;
19231;SDS011;9750;48.730;10.294;2023-10-31T12:48:04;1.73;;;1.30;;
19231;SDS011;9750;48.730;10.294;2023-10-31T12:50:34;4.20;;;1.60;;
19231;SDS011;9750;48.730;10.294;2023-10-31T12:53:03;6.80;;;3.97;;
19231;SDS011;9750;48.730;10.294;2023-10-31T12:55:37;5.57;;;2.97;;
19231;SDS011;9750;48.730;10.294;2023-10-31T12:58:05;2.17;;;1.50;;
19231;SDS011;9750;48.730;10.294;2023-10-31T13:00:35;4.93;;;1.80;;
19231;SDS011;9750;48.730;10.294;2023-10-31T13:03:04;5.13;;;2.50;;
19231;SDS011;9750;48.730;10.294;2023-10-31T13:05:34;3.17;;;2.00;;
19231;SDS011;9750;48.730;10.294;2023-10-31T13:08:03;3.17;;;1.90;;
19231;SDS011;9750;48.730;10.294;2023-10-31T13:10:35;5.23;;;3.20;;
19231;SDS011;9750;48.730;10.294;2023-10-31T13:13:02;3.80;;;2.90;;
19231;SDS011;9750;48.730;10.294;2023-10-31T13:15:30;4.00;;;2.03;;
19231;SDS011;9750;48.730;10.294;2023-10-31T13:17:58;4.70;;;2.70;;
19231;SDS011;9750;48.730;10.294;2023-10-31T13:20:25;4.73;;;3.17;;
19231;SDS011;9750;48.730;10.294;2023-10-31T13:23:01;4.90;;;2.97;;
19231;SDS011;9750;48.730;10.294;2023-10-31T13:25:28;3.83;;;2.30;;
19231;SDS011;9750;48.730;10.294;2023-10-31T13:27:56;5.47;;;3.33;;
19231;SDS011;9750;48.730;10.294;2023-10-31T13:30:24;3.07;;;2.40;;
19231;SDS011;9750;48.730;10.294;2023-10-31T13:32:51;3.43;;;1.63;;
19231;SDS011;9750;48.730;10.294;2023-10-31T13:35:19;3.50;;;1.50;;
19231;SDS011;9750;48.730;10.294;2023-10-31T13:37:46;2.33;;;1.50;;
19231;SDS011;9750;48.730;10.294;2023-10-31T13:40:15;4.40;;;1.40;;
19231;SDS011;9750;48.730;10.294;2023-10-31T13:46:04;2.90;;;1.50;;
19231;SDS011;9750;48.730;10.294;2023-10-31T13:48:31;4.20;;;1.50;;
19231;SDS011;9750;48.730;10.294;2023-10-31T13:50:58;2.10;;;1.50;;
19231;SDS011;9750;48.730;10.294;2023-10-31T13:53:26;2.57;;;1.50;;
19231;SDS011;9750;48.730;10.294;2023-10-31T13:55:54;3.70;;;3.40;;
19231;SDS011;9750;48.730;10.294;2023-10-31T13:58:22;2.80;;;2.40;;
19231;SDS011;9750;48.730;10.294;2023-10-31T14:00:49;2.93;;;1.80;;
19231;SDS011;9750;48.730;10.294;2023-10-31T14:03:16;1.50;;;1.40;;
19231;SDS011;9750;48.730;10.294;2023-10-31T14:05:43;1.20;;;1.10;;
19231;SDS011;9750;48.730;10.294;2023-10-31T14:08:11;2.30;;;1.50;;
19231;SDS011;9750;48.730;10.294;2023-10-31T14:10:38;3.43;;;1.93;;
19231;SDS011;9750;48.730;10.294;2023-10-31T14:13:11;3.47;;;1.70;;
19231;SDS011;9750;48.730;10.294;2023-10-31T14:15:39;2.20;;;1.97;;
19231;SDS011;9750;48.730;10.294;2023-10-31T14:18:07;1.87;;;1.30;;
19231;SDS011;9750;48.730;10.294;2023-10-31T14:20:34;1.23;;;1.10;;
19231;SDS011;9750;48.730;10.294;2023-10-31T14:23:02;1.50;;;1.20;;
19231;SDS011;9750;48.730;10.294;2023-10-31T14:25:29;1.50;;;1.07;;
19231;SDS011;9750;48.730;10.294;2023-10-31T14:27:56;1.70;;;1.50;;
19231;SDS011;9750;48.730;10.294;2023-10-31T14:30:25;2.13;;;1.20;;
19231;SDS011;9750;48.730;10.294;2023-10-31T14:32:52;1.97;;;1.30;;
19231;SDS011;9750;48.730;10.294;2023-10-31T14:35:19;1.83;;;1.53;;
19231;SDS011;9750;48.730;10.294;2023-10-31T14:37:47;1.10;;;0.90;;
19231;SDS011;9750;48.730;10.294;2023-10-31T14:40:14;2.80;;;1.27;;
19231;SDS011;9750;48.730;10.294;2023-10-31T14:42:41;1.63;;;0.90;;
19231;SDS011;9750;48.730;10.294;2023-10-31T14:45:09;1.50;;;1.40;;
19231;SDS011;9750;48.730;10.294;2023-10-31T14:47:38;2.40;;;1.50;;
19231;SDS011;9750;48.730;10.294;2023-10-31T14:50:06;2.80;;;1.20;;
19231;SDS011;9750;48.730;10.294;2023-10-31T14:52:33;1.20;;;1.10;;
19231;SDS011;9750;48.730;10.294;2023-10-31T14:55:01;0.90;;;0.90;;
19231;SDS011;9750;48.730;10.294;2023-10-31T14:57:28;0.80;;;0.80;;